sensor_id;sensor_type;location;lat;lon;timestamp;P1;durP1;ratioP1;P2;durP2;ratioP2
5622;SDS011;2833;50.432;10.706;2022-08-01T00:01:46;5.40;;;5.00;;
5622;SDS011;2833;50.432;10.706;2022-08-01T00:04:11;6.40;;;5.80;;
5622;SDS011;2833;50.432;10.706;2022-08-01T00:06:36;5.90;;;5.40;;
5622;SDS011;2833;50.432;10.706;2022-08-01T00:09:01;6.23;;;5.63;;
5622;SDS011;2833;50.432;10.706;2022-08-01T00:11:27;5.77;;;5.27;;
5622;SDS011;2833;50.432;10.706;2022-08-01T00:13:52;7.33;;;5.30;;
5622;SDS011;2833;50.432;10.706;2022-08-01T00:16:17;5.30;;;4.80;;
5622;SDS011;2833;50.432;10.706;2022-08-01T00:18:42;6.97;;;5.73;;
5622;SDS011;2833;50.432;10.706;2022-08-01T00:21:07;5.70;;;4.60;;
5622;SDS011;2833;50.432;10.706;2022-08-01T00:23:33;5.53;;;5.03;;
5622;SDS011;2833;50.432;10.706;2022-08-01T00:25:58;5.60;;;5.10;;
5622;SDS011;2833;50.432;10.706;2022-08-01T00:28:23;6.10;;;5.00;;
5622;SDS011;2833;50.432;10.706;2022-08-01T00:30:49;5.80;;;5.30;;
5622;SDS011;2833;50.432;10.706;2022-08-01T00:33:14;5.70;;;5.20;;
5622;SDS011;2833;50.432;10.706;2022-08-01T00:35:39;7.83;;;6.13;;
5622;SDS011;2833;50.432;10.706;2022-08-01T00:38:04;6.13;;;5.13;;
5622;SDS011;2833;50.432;10.706;2022-08-01T00:40:29;6.17;;;5.57;;
5622;SDS011;2833;50.432;10.706;2022-08-01T00:42:55;7.30;;;5.47;;
5622;SDS011;2833;50.432;10.706;2022-08-01T00:45:20;6.63;;;5.93;;
5622;SDS011;2833;50.432;10.706;2022-08-01T00:47:45;8.93;;;5.10;;
5622;SDS011;2833;50.432;10.706;2022-08-01T00:50:10;5.93;;;5.40;;
5622;SDS011;2833;50.432;10.706;2022-08-01T00:52:36;5.40;;;4.90;;
5622;SDS011;2833;50.432;10.706;2022-08-01T00:55:01;8.40;;;5.60;;
5622;SDS011;2833;50.432;10.706;2022-08-01T00:57:27;5.80;;;5.30;;
5622;SDS011;2833;50.432;10.706;2022-08-01T00:59:52;8.63;;;5.43;;
5622;SDS011;2833;50.432;10.706;2022-08-01T01:02:18;5.50;;;5.10;;
5622;SDS011;2833;50.432;10.706;2022-08-01T01:04:43;6.17;;;5.60;;
5622;SDS011;2833;50.432;10.706;2022-08-01T01:17:16;5.70;;;5.17;;
5622;SDS011;2833;50.432;10.706;2022-08-01T01:19:45;7.33;;;5.37;;
5622;SDS011;2833;50.432;10.706;2022-08-01T01:24:48;5.07;;;4.67;;
5622;SDS011;2833;50.432;10.706;2022-08-01T01:27:20;6.83;;;5.30;;
5622;SDS011;2833;50.432;10.706;2022-08-01T01:29:46;10.00;;;8.13;;
5622;SDS011;2833;50.432;10.706;2022-08-01T01:32:14;10.10;;;7.43;;
5622;SDS011;2833;50.432;10.706;2022-08-01T01:34:43;7.97;;;7.10;;
5622;SDS011;2833;50.432;10.706;2022-08-01T01:37:09;8.07;;;7.23;;
5622;SDS011;2833;50.432;10.706;2022-08-01T01:39:36;7.10;;;5.63;;
5622;SDS011;2833;50.432;10.706;2022-08-01T01:42:03;7.00;;;5.67;;
5622;SDS011;2833;50.432;10.706;2022-08-01T01:44:29;7.00;;;6.13;;
5622;SDS011;2833;50.432;10.706;2022-08-01T01:46:55;5.97;;;5.37;;
5622;SDS011;2833;50.432;10.706;2022-08-01T01:49:21;6.10;;;5.33;;
5622;SDS011;2833;50.432;10.706;2022-08-01T01:51:48;8.13;;;5.77;;
5622;SDS011;2833;50.432;10.706;2022-08-01T01:54:15;5.50;;;5.00;;
5622;SDS011;2833;50.432;10.706;2022-08-01T01:56:40;6.07;;;5.50;;
5622;SDS011;2833;50.432;10.706;2022-08-01T01:59:13;5.93;;;5.43;;
5622;SDS011;2833;50.432;10.706;2022-08-01T02:01:39;6.47;;;5.87;;
5622;SDS011;2833;50.432;10.706;2022-08-01T02:04:05;6.70;;;6.00;;
5622;SDS011;2833;50.432;10.706;2022-08-01T02:06:31;5.90;;;4.83;;
5622;SDS011;2833;50.432;10.706;2022-08-01T02:08:57;6.30;;;5.40;;
5622;SDS011;2833;50.432;10.706;2022-08-01T02:11:24;5.53;;;5.03;;
5622;SDS011;2833;50.432;10.706;2022-08-01T02:13:53;5.90;;;5.40;;
5622;SDS011;2833;50.432;10.706;2022-08-01T02:16:21;6.00;;;5.50;;
5622;SDS011;2833;50.432;10.706;2022-08-01T02:18:47;5.60;;;5.10;;
5622;SDS011;2833;50.432;10.706;2022-08-01T02:21:13;5.97;;;5.37;;
5622;SDS011;2833;50.432;10.706;2022-08-01T02:23:41;5.90;;;5.37;;
5622;SDS011;2833;50.432;10.706;2022-08-01T02:26:10;8.13;;;5.50;;
5622;SDS011;2833;50.432;10.706;2022-08-01T02:28:43;7.87;;;5.30;;
5622;SDS011;2833;50.432;10.706;2022-08-01T02:31:12;5.70;;;5.20;;
5622;SDS011;2833;50.432;10.706;2022-08-01T02:33:40;6.10;;;5.60;;
5622;SDS011;2833;50.432;10.706;2022-08-01T02:36:06;6.17;;;5.67;;
5622;SDS011;2833;50.432;10.706;2022-08-01T02:38:34;5.97;;;5.40;;
5622;SDS011;2833;50.432;10.706;2022-08-01T02:41:07;6.17;;;5.60;;
5622;SDS011;2833;50.432;10.706;2022-08-01T02:43:33;7.00;;;5.80;;
5622;SDS011;2833;50.432;10.706;2022-08-01T02:46:01;6.60;;;6.00;;
5622;SDS011;2833;50.432;10.706;2022-08-01T02:48:27;5.70;;;5.20;;
5622;SDS011;2833;50.432;10.706;2022-08-01T02:50:57;5.43;;;4.93;;
5622;SDS011;2833;50.432;10.706;2022-08-01T02:53:23;8.20;;;5.00;;
5622;SDS011;2833;50.432;10.706;2022-08-01T02:55:50;7.33;;;5.87;;
5622;SDS011;2833;50.432;10.706;2022-08-01T02:58:16;6.40;;;5.23;;
5622;SDS011;2833;50.432;10.706;2022-08-01T03:00:43;5.73;;;5.03;;
5622;SDS011;2833;50.432;10.706;2022-08-01T03:03:09;5.53;;;5.13;;
5622;SDS011;2833;50.432;10.706;2022-08-01T03:05:35;6.10;;;5.33;;
5622;SDS011;2833;50.432;10.706;2022-08-01T03:08:01;4.90;;;4.50;;
5622;SDS011;2833;50.432;10.706;2022-08-01T03:10:27;5.73;;;5.23;;
5622;SDS011;2833;50.432;10.706;2022-08-01T03:12:52;5.40;;;5.00;;
5622;SDS011;2833;50.432;10.706;2022-08-01T03:15:18;5.90;;;5.40;;
5622;SDS011;2833;50.432;10.706;2022-08-01T03:17:44;5.10;;;4.60;;
5622;SDS011;2833;50.432;10.706;2022-08-01T03:20:10;5.90;;;5.40;;
5622;SDS011;2833;50.432;10.706;2022-08-01T03:22:37;5.63;;;4.90;;
5622;SDS011;2833;50.432;10.706;2022-08-01T03:25:03;8.83;;;4.83;;
5622;SDS011;2833;50.432;10.706;2022-08-01T03:27:31;5.60;;;4.63;;
5622;SDS011;2833;50.432;10.706;2022-08-01T03:29:57;5.40;;;4.90;;
5622;SDS011;2833;50.432;10.706;2022-08-01T03:32:23;5.67;;;5.17;;
5622;SDS011;2833;50.432;10.706;2022-08-01T03:34:48;6.53;;;5.70;;
5622;SDS011;2833;50.432;10.706;2022-08-01T03:39:44;5.30;;;4.80;;
5622;SDS011;2833;50.432;10.706;2022-08-01T03:42:12;5.70;;;5.20;;
5622;SDS011;2833;50.432;10.706;2022-08-01T03:44:39;6.60;;;5.27;;
5622;SDS011;2833;50.432;10.706;2022-08-01T03:47:07;5.63;;;5.13;;
5622;SDS011;2833;50.432;10.706;2022-08-01T03:49:35;5.83;;;5.17;;
5622;SDS011;2833;50.432;10.706;2022-08-01T03:52:03;5.90;;;5.27;;
5622;SDS011;2833;50.432;10.706;2022-08-01T03:54:30;5.40;;;5.00;;
5622;SDS011;2833;50.432;10.706;2022-08-01T03:56:57;7.93;;;4.70;;
5622;SDS011;2833;50.432;10.706;2022-08-01T03:59:23;4.87;;;4.47;;
5622;SDS011;2833;50.432;10.706;2022-08-01T04:01:48;5.23;;;4.83;;
5622;SDS011;2833;50.432;10.706;2022-08-01T04:04:14;5.17;;;4.67;;
5622;SDS011;2833;50.432;10.706;2022-08-01T04:06:40;5.47;;;4.97;;
5622;SDS011;2833;50.432;10.706;2022-08-01T04:09:06;5.00;;;4.57;;
5622;SDS011;2833;50.432;10.706;2022-08-01T04:11:32;5.77;;;5.07;;
5622;SDS011;2833;50.432;10.706;2022-08-01T04:13:57;5.13;;;4.70;;
5622;SDS011;2833;50.432;10.706;2022-08-01T04:16:23;4.53;;;4.13;;
5622;SDS011;2833;50.432;10.706;2022-08-01T04:18:48;4.93;;;4.43;;
5622;SDS011;2833;50.432;10.706;2022-08-01T04:21:13;5.07;;;4.67;;
5622;SDS011;2833;50.432;10.706;2022-08-01T04:23:39;5.40;;;4.90;;
5622;SDS011;2833;50.432;10.706;2022-08-01T04:26:06;4.97;;;4.57;;
5622;SDS011;2833;50.432;10.706;2022-08-01T04:28:32;4.73;;;4.33;;
5622;SDS011;2833;50.432;10.706;2022-08-01T04:30:59;4.87;;;4.47;;
5622;SDS011;2833;50.432;10.706;2022-08-01T04:33:25;4.83;;;4.07;;
5622;SDS011;2833;50.432;10.706;2022-08-01T04:35:50;5.13;;;4.60;;
5622;SDS011;2833;50.432;10.706;2022-08-01T04:38:19;5.77;;;4.40;;
5622;SDS011;2833;50.432;10.706;2022-08-01T04:40:46;5.00;;;4.50;;
5622;SDS011;2833;50.432;10.706;2022-08-01T04:43:11;6.97;;;5.80;;
5622;SDS011;2833;50.432;10.706;2022-08-01T04:45:37;5.80;;;5.30;;
5622;SDS011;2833;50.432;10.706;2022-08-01T04:48:04;7.53;;;5.43;;
5622;SDS011;2833;50.432;10.706;2022-08-01T04:50:31;5.60;;;5.10;;
5622;SDS011;2833;50.432;10.706;2022-08-01T04:52:57;6.10;;;5.50;;
5622;SDS011;2833;50.432;10.706;2022-08-01T04:55:22;10.53;;;5.77;;
5622;SDS011;2833;50.432;10.706;2022-08-01T04:57:47;7.50;;;5.10;;
5622;SDS011;2833;50.432;10.706;2022-08-01T05:00:12;8.00;;;5.10;;
5622;SDS011;2833;50.432;10.706;2022-08-01T05:02:38;6.53;;;5.90;;
5622;SDS011;2833;50.432;10.706;2022-08-01T05:05:03;5.30;;;4.80;;
5622;SDS011;2833;50.432;10.706;2022-08-01T05:07:30;7.63;;;5.20;;
5622;SDS011;2833;50.432;10.706;2022-08-01T05:09:56;5.00;;;4.60;;
5622;SDS011;2833;50.432;10.706;2022-08-01T05:12:21;5.20;;;4.70;;
5622;SDS011;2833;50.432;10.706;2022-08-01T05:14:46;7.90;;;5.13;;
5622;SDS011;2833;50.432;10.706;2022-08-01T05:17:11;8.03;;;5.20;;
5622;SDS011;2833;50.432;10.706;2022-08-01T05:19:37;5.50;;;5.00;;
5622;SDS011;2833;50.432;10.706;2022-08-01T05:22:04;6.03;;;5.47;;
5622;SDS011;2833;50.432;10.706;2022-08-01T05:24:30;6.13;;;4.60;;
5622;SDS011;2833;50.432;10.706;2022-08-01T05:26:55;6.63;;;4.90;;
5622;SDS011;2833;50.432;10.706;2022-08-01T05:29:21;6.37;;;4.80;;
5622;SDS011;2833;50.432;10.706;2022-08-01T05:31:46;5.13;;;4.73;;
5622;SDS011;2833;50.432;10.706;2022-08-01T05:34:11;5.07;;;4.50;;
5622;SDS011;2833;50.432;10.706;2022-08-01T05:36:36;7.50;;;5.27;;
5622;SDS011;2833;50.432;10.706;2022-08-01T05:39:02;4.77;;;4.33;;
5622;SDS011;2833;50.432;10.706;2022-08-01T05:41:28;5.07;;;4.67;;
5622;SDS011;2833;50.432;10.706;2022-08-01T05:43:53;12.10;;;4.20;;
5622;SDS011;2833;50.432;10.706;2022-08-01T05:46:18;5.50;;;4.67;;
5622;SDS011;2833;50.432;10.706;2022-08-01T05:48:43;5.07;;;4.50;;
5622;SDS011;2833;50.432;10.706;2022-08-01T05:51:08;8.57;;;5.17;;
5622;SDS011;2833;50.432;10.706;2022-08-01T05:53:34;4.90;;;4.50;;
5622;SDS011;2833;50.432;10.706;2022-08-01T05:55:59;6.27;;;5.10;;
5622;SDS011;2833;50.432;10.706;2022-08-01T05:58:24;4.40;;;4.10;;
5622;SDS011;2833;50.432;10.706;2022-08-01T06:00:49;5.30;;;4.83;;
5622;SDS011;2833;50.432;10.706;2022-08-01T06:03:15;5.43;;;4.93;;
5622;SDS011;2833;50.432;10.706;2022-08-01T06:05:40;5.07;;;4.50;;
5622;SDS011;2833;50.432;10.706;2022-08-01T06:08:05;5.10;;;4.30;;
5622;SDS011;2833;50.432;10.706;2022-08-01T06:10:30;4.53;;;4.20;;
5622;SDS011;2833;50.432;10.706;2022-08-01T06:12:55;4.77;;;4.23;;
5622;SDS011;2833;50.432;10.706;2022-08-01T06:15:21;4.17;;;3.83;;
5622;SDS011;2833;50.432;10.706;2022-08-01T06:17:46;4.30;;;3.90;;
5622;SDS011;2833;50.432;10.706;2022-08-01T06:20:11;4.80;;;4.37;;
5622;SDS011;2833;50.432;10.706;2022-08-01T06:22:36;5.07;;;4.10;;
5622;SDS011;2833;50.432;10.706;2022-08-01T06:25:02;4.80;;;4.40;;
5622;SDS011;2833;50.432;10.706;2022-08-01T06:27:27;6.10;;;4.50;;
5622;SDS011;2833;50.432;10.706;2022-08-01T06:29:52;4.80;;;4.40;;
5622;SDS011;2833;50.432;10.706;2022-08-01T06:32:21;4.77;;;4.37;;
5622;SDS011;2833;50.432;10.706;2022-08-01T06:34:51;4.53;;;3.83;;
5622;SDS011;2833;50.432;10.706;2022-08-01T06:37:16;4.10;;;3.80;;
5622;SDS011;2833;50.432;10.706;2022-08-01T06:39:41;5.47;;;4.97;;
5622;SDS011;2833;50.432;10.706;2022-08-01T06:42:06;4.77;;;4.27;;
5622;SDS011;2833;50.432;10.706;2022-08-01T06:44:32;5.60;;;4.97;;
5622;SDS011;2833;50.432;10.706;2022-08-01T06:46:57;4.30;;;3.90;;
5622;SDS011;2833;50.432;10.706;2022-08-01T06:49:23;6.37;;;4.13;;
5622;SDS011;2833;50.432;10.706;2022-08-01T06:51:48;4.97;;;4.57;;
5622;SDS011;2833;50.432;10.706;2022-08-01T06:54:14;4.23;;;3.50;;
5622;SDS011;2833;50.432;10.706;2022-08-01T06:56:39;4.00;;;3.70;;
5622;SDS011;2833;50.432;10.706;2022-08-01T06:59:04;3.77;;;3.47;;
5622;SDS011;2833;50.432;10.706;2022-08-01T07:01:29;3.57;;;3.30;;
5622;SDS011;2833;50.432;10.706;2022-08-01T07:03:54;3.60;;;3.17;;
5622;SDS011;2833;50.432;10.706;2022-08-01T07:06:23;3.50;;;3.20;;
5622;SDS011;2833;50.432;10.706;2022-08-01T07:08:49;2.87;;;2.67;;
5622;SDS011;2833;50.432;10.706;2022-08-01T07:11:14;3.90;;;3.60;;
5622;SDS011;2833;50.432;10.706;2022-08-01T07:13:39;3.50;;;3.20;;
5622;SDS011;2833;50.432;10.706;2022-08-01T07:16:05;3.30;;;3.03;;
5622;SDS011;2833;50.432;10.706;2022-08-01T07:18:30;3.03;;;2.83;;
5622;SDS011;2833;50.432;10.706;2022-08-01T07:20:55;3.30;;;3.00;;
5622;SDS011;2833;50.432;10.706;2022-08-01T07:23:20;4.30;;;3.30;;
5622;SDS011;2833;50.432;10.706;2022-08-01T07:25:46;3.77;;;3.47;;
5622;SDS011;2833;50.432;10.706;2022-08-01T07:28:11;4.77;;;3.10;;
5622;SDS011;2833;50.432;10.706;2022-08-01T07:30:36;3.43;;;3.13;;
5622;SDS011;2833;50.432;10.706;2022-08-01T07:33:01;8.00;;;3.00;;
5622;SDS011;2833;50.432;10.706;2022-08-01T07:35:27;4.30;;;3.37;;
5622;SDS011;2833;50.432;10.706;2022-08-01T07:37:52;3.20;;;2.97;;
5622;SDS011;2833;50.432;10.706;2022-08-01T07:40:18;5.70;;;3.40;;
5622;SDS011;2833;50.432;10.706;2022-08-01T07:42:43;3.67;;;3.30;;
5622;SDS011;2833;50.432;10.706;2022-08-01T07:45:10;3.50;;;3.20;;
5622;SDS011;2833;50.432;10.706;2022-08-01T07:47:36;3.70;;;3.40;;
5622;SDS011;2833;50.432;10.706;2022-08-01T07:50:04;3.47;;;3.17;;
5622;SDS011;2833;50.432;10.706;2022-08-01T07:52:30;4.43;;;3.80;;
5622;SDS011;2833;50.432;10.706;2022-08-01T07:54:56;3.60;;;3.27;;
5622;SDS011;2833;50.432;10.706;2022-08-01T07:57:21;4.63;;;3.30;;
5622;SDS011;2833;50.432;10.706;2022-08-01T07:59:46;3.97;;;3.07;;
5622;SDS011;2833;50.432;10.706;2022-08-01T08:02:12;2.80;;;2.60;;
5622;SDS011;2833;50.432;10.706;2022-08-01T08:04:37;2.67;;;2.30;;
5622;SDS011;2833;50.432;10.706;2022-08-01T08:07:02;2.90;;;2.70;;
5622;SDS011;2833;50.432;10.706;2022-08-01T08:09:27;2.83;;;2.63;;
5622;SDS011;2833;50.432;10.706;2022-08-01T08:11:53;2.60;;;2.40;;
5622;SDS011;2833;50.432;10.706;2022-08-01T08:14:18;2.10;;;2.00;;
5622;SDS011;2833;50.432;10.706;2022-08-01T08:16:43;3.53;;;2.57;;
5622;SDS011;2833;50.432;10.706;2022-08-01T08:19:09;2.50;;;2.30;;
5622;SDS011;2833;50.432;10.706;2022-08-01T08:21:34;2.43;;;2.27;;
5622;SDS011;2833;50.432;10.706;2022-08-01T08:23:59;2.70;;;2.50;;
5622;SDS011;2833;50.432;10.706;2022-08-01T08:26:43;2.17;;;2.03;;
5622;SDS011;2833;50.432;10.706;2022-08-01T08:29:08;2.60;;;2.40;;
5622;SDS011;2833;50.432;10.706;2022-08-01T08:31:33;1.73;;;1.63;;
5622;SDS011;2833;50.432;10.706;2022-08-01T08:33:59;2.43;;;2.23;;
5622;SDS011;2833;50.432;10.706;2022-08-01T08:36:24;2.63;;;2.20;;
5622;SDS011;2833;50.432;10.706;2022-08-01T08:38:49;1.70;;;1.60;;
5622;SDS011;2833;50.432;10.706;2022-08-01T08:41:14;1.90;;;1.80;;
5622;SDS011;2833;50.432;10.706;2022-08-01T08:43:40;2.73;;;2.50;;
5622;SDS011;2833;50.432;10.706;2022-08-01T08:46:05;1.93;;;1.80;;
5622;SDS011;2833;50.432;10.706;2022-08-01T08:48:32;2.07;;;1.97;;
5622;SDS011;2833;50.432;10.706;2022-08-01T08:50:58;2.03;;;1.93;;
5622;SDS011;2833;50.432;10.706;2022-08-01T08:53:25;2.23;;;2.13;;
5622;SDS011;2833;50.432;10.706;2022-08-01T08:55:51;2.50;;;2.30;;
5622;SDS011;2833;50.432;10.706;2022-08-01T08:58:16;3.87;;;3.57;;
5622;SDS011;2833;50.432;10.706;2022-08-01T09:00:42;2.77;;;2.57;;
5622;SDS011;2833;50.432;10.706;2022-08-01T09:03:08;3.83;;;3.43;;
5622;SDS011;2833;50.432;10.706;2022-08-01T09:05:33;3.00;;;2.80;;
5622;SDS011;2833;50.432;10.706;2022-08-01T09:07:58;2.83;;;2.63;;
5622;SDS011;2833;50.432;10.706;2022-08-01T09:10:24;2.60;;;2.40;;
5622;SDS011;2833;50.432;10.706;2022-08-01T09:15:42;2.80;;;2.60;;
5622;SDS011;2833;50.432;10.706;2022-08-01T09:18:08;3.10;;;2.83;;
5622;SDS011;2833;50.432;10.706;2022-08-01T09:20:50;3.40;;;3.10;;
5622;SDS011;2833;50.432;10.706;2022-08-01T09:25:59;2.63;;;2.43;;
5622;SDS011;2833;50.432;10.706;2022-08-01T09:28:28;2.77;;;2.57;;
5622;SDS011;2833;50.432;10.706;2022-08-01T09:30:55;3.33;;;2.60;;
5622;SDS011;2833;50.432;10.706;2022-08-01T09:33:20;3.67;;;2.90;;
5622;SDS011;2833;50.432;10.706;2022-08-01T09:35:46;3.20;;;2.97;;
5622;SDS011;2833;50.432;10.706;2022-08-01T09:38:19;3.10;;;2.80;;
5622;SDS011;2833;50.432;10.706;2022-08-01T09:40:45;3.10;;;2.80;;
5622;SDS011;2833;50.432;10.706;2022-08-01T09:43:11;2.10;;;2.00;;
5622;SDS011;2833;50.432;10.706;2022-08-01T09:45:37;2.33;;;2.13;;
5622;SDS011;2833;50.432;10.706;2022-08-01T09:48:05;2.23;;;2.03;;
5622;SDS011;2833;50.432;10.706;2022-08-01T09:50:38;2.30;;;2.10;;
5622;SDS011;2833;50.432;10.706;2022-08-01T09:53:03;2.10;;;2.00;;
5622;SDS011;2833;50.432;10.706;2022-08-01T09:55:28;2.07;;;1.87;;
5622;SDS011;2833;50.432;10.706;2022-08-01T09:57:56;2.30;;;2.10;;
5622;SDS011;2833;50.432;10.706;2022-08-01T10:00:25;1.83;;;1.73;;
5622;SDS011;2833;50.432;10.706;2022-08-01T10:02:51;1.73;;;1.63;;
5622;SDS011;2833;50.432;10.706;2022-08-01T10:05:16;2.10;;;2.00;;
5622;SDS011;2833;50.432;10.706;2022-08-01T10:08:03;1.80;;;1.70;;
5622;SDS011;2833;50.432;10.706;2022-08-01T10:10:28;1.73;;;1.63;;
5622;SDS011;2833;50.432;10.706;2022-08-01T10:12:53;1.93;;;1.83;;
5622;SDS011;2833;50.432;10.706;2022-08-01T10:15:19;1.50;;;1.40;;
5622;SDS011;2833;50.432;10.706;2022-08-01T10:17:53;1.63;;;1.53;;
5622;SDS011;2833;50.432;10.706;2022-08-01T10:20:19;2.40;;;1.70;;
5622;SDS011;2833;50.432;10.706;2022-08-01T10:22:45;1.90;;;1.67;;
5622;SDS011;2833;50.432;10.706;2022-08-01T10:25:10;1.80;;;1.70;;
5622;SDS011;2833;50.432;10.706;2022-08-01T10:27:37;1.90;;;1.80;;
5622;SDS011;2833;50.432;10.706;2022-08-01T10:30:04;2.10;;;1.90;;
5622;SDS011;2833;50.432;10.706;2022-08-01T10:32:30;1.90;;;1.80;;
5622;SDS011;2833;50.432;10.706;2022-08-01T10:34:55;1.90;;;1.80;;
5622;SDS011;2833;50.432;10.706;2022-08-01T10:37:21;2.47;;;2.27;;
5622;SDS011;2833;50.432;10.706;2022-08-01T10:39:47;2.10;;;2.00;;
5622;SDS011;2833;50.432;10.706;2022-08-01T10:42:12;2.50;;;2.30;;
5622;SDS011;2833;50.432;10.706;2022-08-01T10:44:38;2.47;;;2.17;;
5622;SDS011;2833;50.432;10.706;2022-08-01T10:47:08;2.30;;;2.10;;
5622;SDS011;2833;50.432;10.706;2022-08-01T10:49:34;3.47;;;2.37;;
5622;SDS011;2833;50.432;10.706;2022-08-01T10:52:01;2.57;;;2.37;;
5622;SDS011;2833;50.432;10.706;2022-08-01T10:54:26;2.03;;;1.93;;
5622;SDS011;2833;50.432;10.706;2022-08-01T10:56:52;2.40;;;2.20;;
5622;SDS011;2833;50.432;10.706;2022-08-01T10:59:21;2.00;;;1.90;;
5622;SDS011;2833;50.432;10.706;2022-08-01T11:02:03;2.83;;;2.13;;
5622;SDS011;2833;50.432;10.706;2022-08-01T11:04:54;2.10;;;2.00;;
5622;SDS011;2833;50.432;10.706;2022-08-01T11:07:16;2.10;;;2.00;;
5622;SDS011;2833;50.432;10.706;2022-08-01T11:09:43;1.90;;;1.80;;
5622;SDS011;2833;50.432;10.706;2022-08-01T11:12:11;3.50;;;2.13;;
5622;SDS011;2833;50.432;10.706;2022-08-01T11:15:19;2.27;;;2.07;;
5622;SDS011;2833;50.432;10.706;2022-08-01T11:17:32;2.27;;;2.10;;
5622;SDS011;2833;50.432;10.706;2022-08-01T11:20:03;3.00;;;2.03;;
5622;SDS011;2833;50.432;10.706;2022-08-01T11:22:29;2.00;;;1.90;;
5622;SDS011;2833;50.432;10.706;2022-08-01T11:24:54;2.50;;;2.30;;
5622;SDS011;2833;50.432;10.706;2022-08-01T11:27:22;2.20;;;2.10;;
5622;SDS011;2833;50.432;10.706;2022-08-01T11:32:32;3.20;;;2.30;;
5622;SDS011;2833;50.432;10.706;2022-08-01T11:34:57;2.73;;;2.53;;
5622;SDS011;2833;50.432;10.706;2022-08-01T11:37:23;3.00;;;2.33;;
5622;SDS011;2833;50.432;10.706;2022-08-01T11:42:33;2.40;;;2.20;;
5622;SDS011;2833;50.432;10.706;2022-08-01T11:44:59;2.73;;;2.53;;
5622;SDS011;2833;50.432;10.706;2022-08-01T11:47:43;3.10;;;2.87;;
5622;SDS011;2833;50.432;10.706;2022-08-01T11:53:05;2.73;;;2.53;;
5622;SDS011;2833;50.432;10.706;2022-08-01T11:55:30;4.40;;;2.40;;
5622;SDS011;2833;50.432;10.706;2022-08-01T11:57:59;2.30;;;2.10;;
5622;SDS011;2833;50.432;10.706;2022-08-01T12:00:25;2.90;;;2.63;;
5622;SDS011;2833;50.432;10.706;2022-08-01T12:03:01;2.17;;;2.07;;
5622;SDS011;2833;50.432;10.706;2022-08-01T12:05:26;2.67;;;2.47;;
5622;SDS011;2833;50.432;10.706;2022-08-01T12:07:53;3.10;;;2.80;;
5622;SDS011;2833;50.432;10.706;2022-08-01T12:10:19;3.40;;;2.73;;
5622;SDS011;2833;50.432;10.706;2022-08-01T12:12:54;5.70;;;2.87;;
5622;SDS011;2833;50.432;10.706;2022-08-01T12:15:20;2.77;;;2.57;;
5622;SDS011;2833;50.432;10.706;2022-08-01T12:17:48;3.40;;;3.10;;
5622;SDS011;2833;50.432;10.706;2022-08-01T12:20:19;2.83;;;2.60;;
5622;SDS011;2833;50.432;10.706;2022-08-01T12:22:44;5.20;;;3.17;;
5622;SDS011;2833;50.432;10.706;2022-08-01T12:25:10;5.00;;;2.70;;
5622;SDS011;2833;50.432;10.706;2022-08-01T12:27:36;2.63;;;2.43;;
5622;SDS011;2833;50.432;10.706;2022-08-01T12:30:04;19.27;;;16.67;;
5622;SDS011;2833;50.432;10.706;2022-08-01T12:32:30;4.30;;;3.90;;
5622;SDS011;2833;50.432;10.706;2022-08-01T12:34:56;3.37;;;3.07;;
5622;SDS011;2833;50.432;10.706;2022-08-01T12:37:22;3.17;;;2.60;;
5622;SDS011;2833;50.432;10.706;2022-08-01T12:39:48;3.17;;;2.97;;
5622;SDS011;2833;50.432;10.706;2022-08-01T12:42:13;3.00;;;2.80;;
5622;SDS011;2833;50.432;10.706;2022-08-01T12:44:39;4.80;;;3.03;;
5622;SDS011;2833;50.432;10.706;2022-08-01T12:47:05;3.00;;;2.80;;
5622;SDS011;2833;50.432;10.706;2022-08-01T12:49:31;3.27;;;2.97;;
5622;SDS011;2833;50.432;10.706;2022-08-01T12:51:56;3.67;;;3.30;;
5622;SDS011;2833;50.432;10.706;2022-08-01T12:54:22;4.17;;;3.20;;
5622;SDS011;2833;50.432;10.706;2022-08-01T12:56:49;3.80;;;3.10;;
5622;SDS011;2833;50.432;10.706;2022-08-01T12:59:19;3.70;;;3.17;;
5622;SDS011;2833;50.432;10.706;2022-08-01T13:01:45;3.10;;;2.90;;
5622;SDS011;2833;50.432;10.706;2022-08-01T13:04:10;3.30;;;3.00;;
5622;SDS011;2833;50.432;10.706;2022-08-01T13:06:35;4.27;;;2.90;;
5622;SDS011;2833;50.432;10.706;2022-08-01T13:09:07;3.47;;;3.03;;
5622;SDS011;2833;50.432;10.706;2022-08-01T13:11:32;4.20;;;2.80;;
5622;SDS011;2833;50.432;10.706;2022-08-01T13:13:57;3.97;;;3.53;;
5622;SDS011;2833;50.432;10.706;2022-08-01T13:16:23;3.50;;;3.20;;
5622;SDS011;2833;50.432;10.706;2022-08-01T13:18:49;4.00;;;3.07;;
5622;SDS011;2833;50.432;10.706;2022-08-01T13:21:25;2.80;;;2.53;;
5622;SDS011;2833;50.432;10.706;2022-08-01T13:24:04;5.30;;;3.10;;
5622;SDS011;2833;50.432;10.706;2022-08-01T13:29:06;3.73;;;3.43;;
5622;SDS011;2833;50.432;10.706;2022-08-01T13:31:32;2.83;;;2.63;;
5622;SDS011;2833;50.432;10.706;2022-08-01T13:33:58;3.30;;;3.00;;
5622;SDS011;2833;50.432;10.706;2022-08-01T13:36:23;4.80;;;3.10;;
5622;SDS011;2833;50.432;10.706;2022-08-01T13:38:51;7.13;;;3.77;;
5622;SDS011;2833;50.432;10.706;2022-08-01T13:41:35;3.50;;;2.97;;
5622;SDS011;2833;50.432;10.706;2022-08-01T13:44:00;3.20;;;2.90;;
5622;SDS011;2833;50.432;10.706;2022-08-01T13:46:25;4.77;;;3.40;;
5622;SDS011;2833;50.432;10.706;2022-08-01T13:48:51;3.13;;;2.93;;
5622;SDS011;2833;50.432;10.706;2022-08-01T13:51:16;3.47;;;3.17;;
5622;SDS011;2833;50.432;10.706;2022-08-01T13:53:41;2.83;;;2.63;;
5622;SDS011;2833;50.432;10.706;2022-08-01T13:56:06;2.90;;;2.67;;
5622;SDS011;2833;50.432;10.706;2022-08-01T13:58:31;3.53;;;2.90;;
5622;SDS011;2833;50.432;10.706;2022-08-01T14:00:56;5.03;;;3.50;;
5622;SDS011;2833;50.432;10.706;2022-08-01T14:03:22;4.10;;;2.70;;
5622;SDS011;2833;50.432;10.706;2022-08-01T14:05:47;5.00;;;2.70;;
5622;SDS011;2833;50.432;10.706;2022-08-01T14:08:12;3.03;;;2.73;;
5622;SDS011;2833;50.432;10.706;2022-08-01T14:10:38;3.20;;;2.90;;
5622;SDS011;2833;50.432;10.706;2022-08-01T14:13:03;5.47;;;3.07;;
5622;SDS011;2833;50.432;10.706;2022-08-01T14:15:29;4.03;;;3.60;;
5622;SDS011;2833;50.432;10.706;2022-08-01T14:17:55;3.97;;;3.67;;
5622;SDS011;2833;50.432;10.706;2022-08-01T14:20:20;4.27;;;3.87;;
5622;SDS011;2833;50.432;10.706;2022-08-01T14:22:46;4.00;;;3.60;;
5622;SDS011;2833;50.432;10.706;2022-08-01T14:25:11;4.00;;;3.60;;
5622;SDS011;2833;50.432;10.706;2022-08-01T14:27:36;3.47;;;3.00;;
5622;SDS011;2833;50.432;10.706;2022-08-01T14:30:02;4.20;;;3.67;;
5622;SDS011;2833;50.432;10.706;2022-08-01T14:32:28;4.07;;;3.60;;
5622;SDS011;2833;50.432;10.706;2022-08-01T14:34:53;2.90;;;2.70;;
5622;SDS011;2833;50.432;10.706;2022-08-01T14:37:18;4.30;;;3.60;;
5622;SDS011;2833;50.432;10.706;2022-08-01T14:39:43;5.97;;;3.17;;
5622;SDS011;2833;50.432;10.706;2022-08-01T14:42:08;3.27;;;2.97;;
5622;SDS011;2833;50.432;10.706;2022-08-01T14:44:34;3.33;;;3.00;;
5622;SDS011;2833;50.432;10.706;2022-08-01T14:46:59;3.00;;;2.80;;
5622;SDS011;2833;50.432;10.706;2022-08-01T14:49:24;3.30;;;3.00;;
5622;SDS011;2833;50.432;10.706;2022-08-01T14:51:49;2.57;;;2.37;;
5622;SDS011;2833;50.432;10.706;2022-08-01T14:54:15;3.57;;;2.87;;
5622;SDS011;2833;50.432;10.706;2022-08-01T14:56:40;2.87;;;2.67;;
5622;SDS011;2833;50.432;10.706;2022-08-01T14:59:05;4.07;;;3.67;;
5622;SDS011;2833;50.432;10.706;2022-08-01T15:01:30;3.13;;;2.90;;
5622;SDS011;2833;50.432;10.706;2022-08-01T15:03:55;3.30;;;3.00;;
5622;SDS011;2833;50.432;10.706;2022-08-01T15:06:21;3.40;;;3.10;;
5622;SDS011;2833;50.432;10.706;2022-08-01T15:08:46;3.60;;;3.00;;
5622;SDS011;2833;50.432;10.706;2022-08-01T15:11:11;3.93;;;3.17;;
5622;SDS011;2833;50.432;10.706;2022-08-01T15:13:36;3.20;;;2.90;;
5622;SDS011;2833;50.432;10.706;2022-08-01T15:16:02;3.20;;;2.77;;
5622;SDS011;2833;50.432;10.706;2022-08-01T15:18:27;4.23;;;2.70;;
5622;SDS011;2833;50.432;10.706;2022-08-01T15:20:52;3.50;;;3.00;;
5622;SDS011;2833;50.432;10.706;2022-08-01T15:23:18;3.57;;;3.10;;
5622;SDS011;2833;50.432;10.706;2022-08-01T15:25:43;3.50;;;3.20;;
5622;SDS011;2833;50.432;10.706;2022-08-01T15:28:08;6.70;;;3.30;;